createdAt,value
2022-08-24T00:00:58.049Z,12.38
2022-08-24T00:04:59.766Z,8.38
2022-08-24T00:09:01.306Z,8.63
2022-08-24T00:13:02.902Z,7.68
2022-08-24T00:17:04.934Z,9.43
2022-08-24T00:21:08.126Z,7.70
2022-08-24T00:25:11.817Z,10.95
2022-08-24T00:29:17.431Z,8.73
2022-08-24T00:33:18.918Z,10.07
2022-08-24T00:37:20.468Z,9.32
2022-08-24T00:41:22.584Z,9.98
2022-08-24T00:45:27.229Z,7.15
2022-08-24T00:49:45.959Z,7.15
2022-08-24T00:53:53.005Z,9.68
2022-08-24T00:57:59.699Z,8.00
2022-08-24T01:02:15.267Z,10.57
2022-08-24T01:06:17.497Z,8.73
2022-08-24T01:10:25.823Z,8.55
2022-08-24T01:14:27.344Z,8.82
2022-08-24T01:18:47.550Z,10.65
2022-08-24T01:23:13.552Z,9.32
2022-08-24T01:27:15.593Z,7.70
2022-08-24T01:31:22.091Z,10.00
2022-08-24T01:35:24.325Z,7.00
2022-08-24T01:39:33.851Z,6.15
2022-08-24T01:43:37.397Z,7.45
2022-08-24T01:47:39.013Z,8.00
2022-08-24T01:51:42.330Z,8.25
2022-08-24T01:55:44.777Z,8.68
2022-08-24T01:59:46.252Z,7.57
2022-08-24T02:03:51.843Z,8.52
2022-08-24T02:07:53.619Z,8.13
2022-08-24T02:11:55.391Z,8.48
2022-08-24T02:15:57.436Z,10.27
2022-08-24T02:19:58.910Z,10.63
2022-08-24T02:24:00.363Z,7.75
2022-08-24T02:28:01.993Z,7.72
2022-08-24T02:32:04.702Z,8.43
2022-08-24T02:36:10.460Z,9.75
2022-08-24T02:40:28.154Z,10.98
2022-08-24T02:44:29.655Z,10.27
2022-08-24T02:48:31.114Z,8.95
2022-08-24T02:52:32.623Z,10.13
2022-08-24T02:56:34.070Z,13.30
2022-08-24T03:00:38.427Z,14.05
2022-08-24T03:04:40.872Z,16.50
2022-08-24T03:08:42.351Z,29.95
2022-08-24T03:12:50.416Z,34.05
2022-08-24T03:16:51.855Z,45.42
2022-08-24T03:20:54.843Z,47.50
2022-08-24T03:24:56.550Z,47.08
2022-08-24T03:28:59.041Z,43.70
2022-08-24T03:33:01.504Z,48.63
2022-08-24T03:37:02.997Z,58.03
2022-08-24T03:41:04.565Z,53.47
2022-08-24T03:45:06.985Z,48.92
2022-08-24T03:49:10.077Z,57.50
2022-08-24T03:53:11.735Z,54.35
2022-08-24T03:57:14.409Z,56.72
2022-08-24T04:01:17.666Z,53.38
2022-08-24T04:05:19.427Z,53.63
2022-08-24T04:09:20.892Z,54.83
2022-08-24T04:13:22.366Z,57.53
2022-08-24T04:17:23.839Z,48.33
2022-08-24T04:21:32.067Z,52.22
2022-08-24T04:25:45.220Z,92.70
2022-08-24T04:29:46.687Z,77.88
2022-08-24T04:33:53.893Z,81.05
2022-08-24T04:37:55.635Z,66.97
2022-08-24T04:41:57.548Z,140.60
2022-08-24T04:46:06.505Z,122.03
2022-08-24T04:50:08.385Z,113.97
2022-08-24T04:54:09.867Z,78.78
2022-08-24T04:58:13.461Z,177.10
2022-08-24T05:02:14.970Z,94.75
2022-08-24T05:06:18.757Z,72.75
2022-08-24T05:10:21.027Z,92.28
2022-08-24T05:14:25.667Z,68.15
2022-08-24T05:18:30.172Z,72.88
2022-08-24T05:22:31.794Z,74.50
2022-08-24T05:26:34.090Z,54.50
2022-08-24T05:30:40.594Z,65.57
2022-08-24T05:34:44.540Z,53.23
2022-08-24T05:38:47.867Z,28.80
2022-08-24T05:42:49.604Z,34.60
2022-08-24T05:46:51.377Z,34.83
2022-08-24T05:50:55.004Z,66.22
2022-08-24T05:54:59.148Z,51.03
2022-08-24T05:59:00.860Z,38.80
2022-08-24T06:03:02.473Z,64.10
2022-08-24T06:07:05.449Z,27.77
2022-08-24T06:11:06.995Z,45.00
2022-08-24T06:15:09.607Z,32.88
2022-08-24T06:19:13.867Z,30.83
2022-08-24T06:23:15.393Z,35.10
2022-08-24T06:27:23.514Z,40.55
2022-08-24T06:31:28.924Z,40.00
2022-08-24T06:35:44.847Z,34.47
2022-08-24T06:39:48.988Z,35.80
2022-08-24T06:43:57.184Z,34.10
2022-08-24T06:47:58.810Z,34.53
2022-08-24T06:52:00.361Z,34.50
2022-08-24T06:56:02.408Z,34.40
2022-08-24T07:00:05.006Z,29.58
2022-08-24T07:04:06.463Z,37.33
2022-08-24T07:08:08.144Z,33.35
2022-08-24T07:12:09.700Z,31.08
2022-08-24T07:16:11.242Z,33.83
2022-08-24T07:20:12.829Z,31.05
2022-08-24T07:24:14.395Z,30.67
2022-08-24T07:28:16.296Z,28.40
2022-08-24T07:32:18.172Z,31.05
2022-08-24T07:36:22.478Z,33.55
2022-08-24T07:40:26.949Z,29.30
2022-08-24T07:44:28.512Z,30.05
2022-08-24T07:48:32.022Z,23.85
2022-08-24T07:52:35.770Z,24.40
2022-08-24T07:56:37.216Z,22.55
2022-08-24T08:00:38.748Z,21.63
2022-08-24T08:04:41.476Z,22.00
2022-08-24T08:08:43.443Z,20.27
2022-08-24T08:12:50.237Z,18.80
2022-08-24T08:16:53.997Z,23.52
2022-08-24T08:20:55.588Z,26.75
2022-08-24T08:24:57.033Z,17.05
2022-08-24T08:28:58.472Z,19.65
2022-08-24T08:33:00.006Z,17.08
2022-08-24T08:37:03.569Z,16.05
2022-08-24T08:41:05.412Z,14.52
2022-08-24T08:45:35.352Z,16.63
2022-08-24T08:50:12.959Z,18.58
2022-08-24T08:54:30.357Z,14.43
2022-08-24T08:59:07.290Z,15.98
2022-08-24T09:03:17.356Z,13.80
2022-08-24T09:07:27.486Z,12.90
2022-08-24T09:11:41.529Z,13.20
2022-08-24T09:16:08.407Z,12.60
2022-08-24T09:20:56.087Z,14.32
2022-08-24T09:25:09.766Z,13.98
2022-08-24T09:29:13.926Z,11.77
2022-08-24T09:33:21.148Z,14.98
2022-08-24T09:37:56.196Z,12.82
2022-08-24T09:42:18.932Z,11.40
2022-08-24T09:46:43.210Z,10.57
2022-08-24T09:51:32.648Z,10.18
2022-08-24T09:55:37.274Z,13.80
2022-08-24T10:00:09.538Z,13.25
2022-08-24T10:04:36.648Z,11.68
2022-08-24T10:09:12.422Z,11.60
2022-08-24T10:13:43.253Z,12.75
2022-08-24T10:18:22.992Z,10.68
2022-08-24T10:22:49.271Z,13.93
2022-08-24T10:27:15.631Z,14.65
2022-08-24T10:31:31.822Z,9.23
2022-08-24T10:36:04.734Z,11.95
2022-08-24T10:40:10.302Z,12.77
2022-08-24T10:44:40.722Z,10.73
2022-08-24T10:48:53.576Z,12.85
2022-08-24T10:53:13.815Z,11.50
2022-08-24T10:57:26.555Z,17.80
2022-08-24T11:01:31.907Z,14.07
2022-08-24T11:05:42.074Z,13.13
2022-08-24T11:09:45.167Z,15.90
2022-08-24T11:13:59.166Z,12.32
2022-08-24T11:18:04.281Z,11.23
2022-08-24T11:22:21.469Z,12.30
2022-08-24T11:26:25.741Z,12.35
2022-08-24T11:30:29.527Z,13.50
2022-08-24T11:34:38.079Z,14.68
2022-08-24T11:38:39.504Z,13.50
2022-08-24T11:42:53.497Z,11.93
2022-08-24T11:47:03.649Z,13.23
2022-08-24T11:51:13.639Z,13.05
2022-08-24T11:55:24.577Z,11.73
2022-08-24T11:59:50.246Z,13.45
2022-08-24T12:04:29.435Z,9.82
2022-08-24T12:08:45.874Z,14.50
2022-08-24T12:13:09.360Z,11.68
2022-08-24T12:17:26.498Z,13.98
2022-08-24T12:21:34.409Z,12.32
2022-08-24T12:25:55.190Z,10.20
2022-08-24T12:30:12.309Z,14.25
2022-08-24T12:34:24.775Z,13.57
2022-08-24T12:38:33.375Z,9.80
2022-08-24T12:42:51.282Z,9.75
2022-08-24T12:46:54.480Z,9.65
2022-08-24T12:51:08.153Z,10.30
2022-08-24T12:55:35.626Z,8.32
2022-08-24T12:59:39.487Z,8.15
2022-08-24T13:03:43.825Z,7.97
2022-08-24T13:07:48.873Z,7.28
2022-08-24T13:11:50.317Z,8.20
2022-08-24T13:15:56.285Z,10.07
2022-08-24T13:20:20.026Z,7.65
2022-08-24T13:24:30.645Z,8.13
2022-08-24T13:28:48.542Z,12.80
2022-08-24T13:33:01.051Z,11.20
2022-08-24T13:37:14.212Z,10.40
2022-08-24T13:41:37.427Z,6.57
2022-08-24T13:45:42.661Z,8.85
2022-08-24T13:50:03.021Z,11.88
2022-08-24T13:54:23.940Z,7.88
2022-08-24T13:58:45.139Z,9.60
2022-08-24T14:03:18.721Z,8.80
2022-08-24T14:07:59.871Z,9.75
2022-08-24T14:12:07.313Z,11.43
2022-08-24T14:16:46.484Z,7.57
2022-08-24T14:20:54.099Z,9.00
2022-08-24T14:25:17.255Z,6.15
2022-08-24T14:29:18.642Z,8.13
2022-08-24T14:33:30.616Z,5.35
2022-08-24T14:38:05.058Z,6.82
2022-08-24T14:42:51.718Z,8.55
2022-08-24T14:47:02.339Z,8.85
2022-08-24T14:51:32.965Z,9.02
2022-08-24T14:55:53.291Z,7.65
2022-08-24T15:00:13.729Z,6.07
2022-08-24T15:04:37.841Z,8.73
2022-08-24T15:08:43.135Z,11.50
2022-08-24T15:12:51.571Z,6.10
2022-08-24T15:17:03.419Z,7.78
2022-08-24T15:21:26.729Z,7.35
2022-08-24T15:26:04.783Z,9.13
2022-08-24T15:30:20.642Z,6.05
2022-08-24T15:34:40.396Z,7.72
2022-08-24T15:38:42.406Z,9.68
2022-08-24T15:42:44.385Z,14.25
2022-08-24T15:47:00.581Z,9.20
2022-08-24T15:51:02.562Z,7.78
2022-08-24T15:55:06.460Z,10.77
2022-08-24T15:59:13.903Z,10.00
2022-08-24T16:03:48.660Z,8.25
2022-08-24T16:08:02.391Z,8.48
2022-08-24T16:12:12.720Z,7.80
2022-08-24T16:16:16.794Z,8.13
2022-08-24T16:20:24.596Z,9.90
2022-08-24T16:24:28.608Z,7.53
2022-08-24T16:28:36.042Z,5.43
2022-08-24T16:32:54.026Z,13.02
2022-08-24T16:36:56.714Z,4.70
2022-08-24T16:41:00.623Z,7.28
2022-08-24T16:45:04.604Z,9.80
2022-08-24T16:49:12.566Z,9.48
2022-08-24T16:53:14.301Z,10.35
2022-08-24T16:57:19.687Z,7.97
2022-08-24T17:01:21.293Z,13.77
2022-08-24T17:05:23.727Z,8.00
2022-08-24T17:09:25.292Z,11.45
2022-08-24T17:13:48.390Z,9.63
2022-08-24T17:17:56.302Z,10.50
2022-08-24T17:21:57.873Z,9.23
2022-08-24T17:26:00.230Z,9.25
2022-08-24T17:30:04.041Z,7.90
2022-08-24T17:34:08.023Z,9.18
2022-08-24T17:38:09.535Z,6.47
2022-08-24T17:42:33.736Z,10.70
2022-08-24T17:46:32.995Z,13.15
2022-08-24T17:50:35.695Z,5.72
2022-08-24T17:54:37.186Z,9.65
2022-08-24T17:58:58.654Z,8.00
2022-08-24T18:03:00.160Z,9.90
2022-08-24T18:07:06.651Z,9.68
2022-08-24T18:11:13.119Z,10.23
2022-08-24T18:15:14.716Z,8.98
2022-08-24T18:19:16.371Z,9.55
2022-08-24T18:23:21.220Z,6.75
2022-08-24T18:27:29.841Z,10.73
2022-08-24T18:31:31.712Z,9.50
2022-08-24T18:35:34.512Z,12.57
2022-08-24T18:39:36.550Z,7.10
2022-08-24T18:43:38.245Z,7.82
2022-08-24T18:47:40.111Z,8.73
2022-08-24T18:51:43.007Z,6.65
2022-08-24T18:55:46.302Z,7.57
2022-08-24T18:59:47.913Z,7.35
2022-08-24T19:03:50.366Z,6.63
2022-08-24T19:07:53.259Z,8.75
2022-08-24T19:11:54.830Z,9.75
2022-08-24T19:15:58.180Z,8.77
2022-08-24T19:19:59.728Z,8.77
2022-08-24T19:24:02.493Z,10.70
2022-08-24T19:28:06.246Z,7.93
2022-08-24T19:32:13.880Z,12.65
2022-08-24T19:36:23.811Z,8.70
2022-08-24T19:40:25.355Z,9.55
2022-08-24T19:44:51.999Z,10.43
2022-08-24T19:48:54.027Z,6.75
2022-08-24T19:52:58.498Z,9.07
2022-08-24T19:57:01.044Z,7.78
2022-08-24T20:01:11.598Z,7.47
2022-08-24T20:05:13.587Z,7.00
2022-08-24T20:09:15.119Z,7.95
2022-08-24T20:13:17.056Z,10.07
2022-08-24T20:17:18.517Z,7.13
2022-08-24T20:21:29.803Z,9.85
2022-08-24T20:25:33.882Z,8.05
2022-08-24T20:29:35.381Z,6.68
2022-08-24T20:33:36.971Z,7.00
2022-08-24T20:37:41.303Z,7.65
2022-08-24T20:41:42.761Z,8.82
2022-08-24T20:45:45.376Z,6.90
2022-08-24T20:49:47.899Z,10.43
2022-08-24T20:53:49.353Z,8.35
2022-08-24T20:57:55.881Z,6.65
2022-08-24T21:01:57.345Z,11.23
2022-08-24T21:05:59.330Z,8.73
2022-08-24T21:10:00.979Z,9.00
2022-08-24T21:14:06.023Z,10.00
2022-08-24T21:18:07.583Z,9.02
2022-08-24T21:22:09.489Z,8.88
2022-08-24T21:26:14.177Z,8.95
2022-08-24T21:30:19.543Z,8.57
2022-08-24T21:34:39.710Z,8.32
2022-08-24T21:38:44.701Z,10.35
2022-08-24T21:42:47.010Z,7.25
2022-08-24T21:46:50.458Z,7.47
2022-08-24T21:50:52.051Z,8.93
2022-08-24T21:54:56.289Z,7.18
2022-08-24T21:58:58.783Z,9.60
2022-08-24T22:03:00.501Z,10.23
2022-08-24T22:07:02.437Z,12.57
2022-08-24T22:11:05.100Z,12.73
2022-08-24T22:15:09.076Z,8.30
2022-08-24T22:19:11.790Z,10.40
2022-08-24T22:23:13.396Z,12.30
2022-08-24T22:27:14.876Z,9.80
2022-08-24T22:31:35.949Z,8.18
2022-08-24T22:35:44.765Z,9.32
2022-08-24T22:39:47.052Z,8.60
2022-08-24T22:44:07.918Z,10.70
2022-08-24T22:48:09.584Z,10.02
2022-08-24T22:52:12.981Z,8.27
2022-08-24T22:56:17.240Z,8.57
2022-08-24T23:00:19.035Z,9.45
2022-08-24T23:04:23.871Z,10.45
2022-08-24T23:08:25.384Z,8.38
2022-08-24T23:12:28.484Z,7.85
2022-08-24T23:16:32.098Z,7.90
2022-08-24T23:20:33.568Z,10.98
2022-08-24T23:24:35.902Z,10.10
2022-08-24T23:28:37.469Z,11.43
2022-08-24T23:32:40.118Z,12.80
2022-08-24T23:36:43.095Z,7.95
2022-08-24T23:40:44.764Z,11.38
2022-08-24T23:44:46.868Z,10.65
2022-08-24T23:48:55.463Z,8.13
2022-08-24T23:52:57.716Z,9.50
2022-08-24T23:56:59.186Z,8.88
